sensor_id;sensor_type;location;lat;lon;timestamp;temperature;humidity
21672;DHT22;10997;52.242;8.168;2023-07-16T00:02:27;19.60;99.90
21672;DHT22;10997;52.242;8.168;2023-07-16T00:07:28;19.60;99.90
21672;DHT22;10997;52.242;8.168;2023-07-16T00:12:28;19.60;99.90
21672;DHT22;10997;52.242;8.168;2023-07-16T00:17:29;19.60;99.90
21672;DHT22;10997;52.242;8.168;2023-07-16T00:22:29;19.40;99.90
21672;DHT22;10997;52.242;8.168;2023-07-16T00:27:30;19.40;99.90
21672;DHT22;10997;52.242;8.168;2023-07-16T00:32:30;19.30;99.90
21672;DHT22;10997;52.242;8.168;2023-07-16T00:37:33;19.10;99.90
21672;DHT22;10997;52.242;8.168;2023-07-16T00:42:33;18.90;99.90
21672;DHT22;10997;52.242;8.168;2023-07-16T00:47:34;18.90;99.90
21672;DHT22;10997;52.242;8.168;2023-07-16T00:52:35;18.80;99.90
21672;DHT22;10997;52.242;8.168;2023-07-16T00:57:36;18.70;99.90
21672;DHT22;10997;52.242;8.168;2023-07-16T01:02:36;18.60;99.90
21672;DHT22;10997;52.242;8.168;2023-07-16T01:07:38;18.50;99.90
21672;DHT22;10997;52.242;8.168;2023-07-16T01:12:40;18.40;99.90
21672;DHT22;10997;52.242;8.168;2023-07-16T01:17:41;18.30;99.90
21672;DHT22;10997;52.242;8.168;2023-07-16T01:33:08;18.20;99.90
21672;DHT22;10997;52.242;8.168;2023-07-16T01:38:11;18.10;99.90
21672;DHT22;10997;52.242;8.168;2023-07-16T01:43:12;18.10;99.90
21672;DHT22;10997;52.242;8.168;2023-07-16T01:53:19;17.90;99.90
21672;DHT22;10997;52.242;8.168;2023-07-16T01:58:20;17.90;99.90
21672;DHT22;10997;52.242;8.168;2023-07-16T02:03:20;17.90;99.90
21672;DHT22;10997;52.242;8.168;2023-07-16T02:08:21;17.80;99.90
21672;DHT22;10997;52.242;8.168;2023-07-16T02:13:21;17.70;99.90
21672;DHT22;10997;52.242;8.168;2023-07-16T02:18:22;17.70;99.90
21672;DHT22;10997;52.242;8.168;2023-07-16T02:23:23;17.70;99.90
21672;DHT22;10997;52.242;8.168;2023-07-16T02:28:23;17.60;99.90
21672;DHT22;10997;52.242;8.168;2023-07-16T02:33:24;17.60;99.90
21672;DHT22;10997;52.242;8.168;2023-07-16T02:38:24;17.60;99.90
21672;DHT22;10997;52.242;8.168;2023-07-16T02:43:25;17.60;99.90
21672;DHT22;10997;52.242;8.168;2023-07-16T02:48:26;17.70;99.90
21672;DHT22;10997;52.242;8.168;2023-07-16T02:53:26;17.70;99.90
21672;DHT22;10997;52.242;8.168;2023-07-16T02:58:27;17.70;99.90
21672;DHT22;10997;52.242;8.168;2023-07-16T03:03:27;17.60;99.90
21672;DHT22;10997;52.242;8.168;2023-07-16T03:08:28;17.50;99.90
21672;DHT22;10997;52.242;8.168;2023-07-16T03:13:30;17.40;99.90
21672;DHT22;10997;52.242;8.168;2023-07-16T03:18:31;17.30;99.90
21672;DHT22;10997;52.242;8.168;2023-07-16T03:23:31;17.30;99.90
21672;DHT22;10997;52.242;8.168;2023-07-16T03:28:32;17.20;99.90
21672;DHT22;10997;52.242;8.168;2023-07-16T03:33:32;17.20;99.90
21672;DHT22;10997;52.242;8.168;2023-07-16T03:38:33;17.20;99.90
21672;DHT22;10997;52.242;8.168;2023-07-16T03:43:34;17.20;99.90
21672;DHT22;10997;52.242;8.168;2023-07-16T03:48:35;17.10;99.90
21672;DHT22;10997;52.242;8.168;2023-07-16T03:53:36;17.20;99.90
21672;DHT22;10997;52.242;8.168;2023-07-16T03:58:37;17.20;99.90
21672;DHT22;10997;52.242;8.168;2023-07-16T04:03:37;17.20;99.90
21672;DHT22;10997;52.242;8.168;2023-07-16T04:08:38;17.10;99.90
21672;DHT22;10997;52.242;8.168;2023-07-16T04:13:39;17.20;99.90
21672;DHT22;10997;52.242;8.168;2023-07-16T04:18:39;17.30;99.90
21672;DHT22;10997;52.242;8.168;2023-07-16T04:23:40;17.30;99.90
21672;DHT22;10997;52.242;8.168;2023-07-16T04:28:40;17.40;99.90
21672;DHT22;10997;52.242;8.168;2023-07-16T04:33:41;17.50;99.90
21672;DHT22;10997;52.242;8.168;2023-07-16T04:38:41;17.60;99.90
21672;DHT22;10997;52.242;8.168;2023-07-16T04:43:42;17.60;99.90
21672;DHT22;10997;52.242;8.168;2023-07-16T04:48:43;17.70;99.90
21672;DHT22;10997;52.242;8.168;2023-07-16T04:53:43;17.70;99.90
21672;DHT22;10997;52.242;8.168;2023-07-16T04:58:44;17.70;99.90
21672;DHT22;10997;52.242;8.168;2023-07-16T05:03:44;17.90;99.90
21672;DHT22;10997;52.242;8.168;2023-07-16T05:08:45;17.90;99.90
21672;DHT22;10997;52.242;8.168;2023-07-16T05:13:46;18.00;99.90
21672;DHT22;10997;52.242;8.168;2023-07-16T05:18:46;18.20;99.90
21672;DHT22;10997;52.242;8.168;2023-07-16T05:23:47;18.30;99.90
21672;DHT22;10997;52.242;8.168;2023-07-16T05:28:48;18.30;99.90
21672;DHT22;10997;52.242;8.168;2023-07-16T05:33:49;18.30;99.90
21672;DHT22;10997;52.242;8.168;2023-07-16T05:38:49;18.40;99.90
21672;DHT22;10997;52.242;8.168;2023-07-16T05:43:50;18.40;99.90
21672;DHT22;10997;52.242;8.168;2023-07-16T05:48:51;18.50;99.90
21672;DHT22;10997;52.242;8.168;2023-07-16T05:53:51;18.40;99.90
21672;DHT22;10997;52.242;8.168;2023-07-16T05:58:52;18.50;99.90
21672;DHT22;10997;52.242;8.168;2023-07-16T06:03:53;18.60;99.90
21672;DHT22;10997;52.242;8.168;2023-07-16T06:08:54;18.60;99.90
21672;DHT22;10997;52.242;8.168;2023-07-16T06:13:54;18.60;99.90
21672;DHT22;10997;52.242;8.168;2023-07-16T06:18:55;18.70;99.90
21672;DHT22;10997;52.242;8.168;2023-07-16T06:23:56;18.70;99.90
21672;DHT22;10997;52.242;8.168;2023-07-16T06:28:56;18.80;99.90
21672;DHT22;10997;52.242;8.168;2023-07-16T06:33:57;18.90;99.90
21672;DHT22;10997;52.242;8.168;2023-07-16T06:38:58;18.80;99.90
21672;DHT22;10997;52.242;8.168;2023-07-16T06:44:00;18.80;99.90
21672;DHT22;10997;52.242;8.168;2023-07-16T06:49:01;19.00;99.90
21672;DHT22;10997;52.242;8.168;2023-07-16T06:54:01;19.00;99.90
21672;DHT22;10997;52.242;8.168;2023-07-16T06:59:02;19.10;99.90
21672;DHT22;10997;52.242;8.168;2023-07-16T07:04:03;19.40;99.90
21672;DHT22;10997;52.242;8.168;2023-07-16T07:09:03;19.60;99.90
21672;DHT22;10997;52.242;8.168;2023-07-16T07:14:04;19.40;99.90
21672;DHT22;10997;52.242;8.168;2023-07-16T07:19:04;19.50;99.90
21672;DHT22;10997;52.242;8.168;2023-07-16T07:24:05;19.50;99.90
21672;DHT22;10997;52.242;8.168;2023-07-16T07:29:06;19.60;99.90
21672;DHT22;10997;52.242;8.168;2023-07-16T07:34:06;19.60;99.90
21672;DHT22;10997;52.242;8.168;2023-07-16T07:39:07;19.80;99.90
21672;DHT22;10997;52.242;8.168;2023-07-16T07:44:08;20.10;99.90
21672;DHT22;10997;52.242;8.168;2023-07-16T07:49:08;20.10;99.90
21672;DHT22;10997;52.242;8.168;2023-07-16T07:54:09;20.20;99.90
21672;DHT22;10997;52.242;8.168;2023-07-16T07:59:09;20.20;99.90
21672;DHT22;10997;52.242;8.168;2023-07-16T08:04:10;20.30;99.90
21672;DHT22;10997;52.242;8.168;2023-07-16T08:09:11;20.70;99.90
21672;DHT22;10997;52.242;8.168;2023-07-16T08:14:11;21.00;99.90
21672;DHT22;10997;52.242;8.168;2023-07-16T08:19:12;21.00;99.90
21672;DHT22;10997;52.242;8.168;2023-07-16T08:24:12;20.90;99.90
21672;DHT22;10997;52.242;8.168;2023-07-16T08:29:13;21.10;99.90
21672;DHT22;10997;52.242;8.168;2023-07-16T08:34:14;21.50;99.90
21672;DHT22;10997;52.242;8.168;2023-07-16T08:39:14;21.80;99.90
21672;DHT22;10997;52.242;8.168;2023-07-16T08:44:15;22.00;99.90
21672;DHT22;10997;52.242;8.168;2023-07-16T08:49:17;21.90;99.90
21672;DHT22;10997;52.242;8.168;2023-07-16T08:54:20;21.80;99.90
21672;DHT22;10997;52.242;8.168;2023-07-16T08:59:22;21.70;99.90
21672;DHT22;10997;52.242;8.168;2023-07-16T09:04:22;21.70;99.90
21672;DHT22;10997;52.242;8.168;2023-07-16T09:09:24;21.60;99.90
21672;DHT22;10997;52.242;8.168;2023-07-16T09:14:24;21.30;99.90
21672;DHT22;10997;52.242;8.168;2023-07-16T09:19:25;21.40;99.90
21672;DHT22;10997;52.242;8.168;2023-07-16T09:24:26;21.50;99.90
21672;DHT22;10997;52.242;8.168;2023-07-16T09:29:26;21.70;99.90
21672;DHT22;10997;52.242;8.168;2023-07-16T09:34:29;21.80;99.90
21672;DHT22;10997;52.242;8.168;2023-07-16T09:39:31;22.10;99.90
21672;DHT22;10997;52.242;8.168;2023-07-16T09:44:33;21.80;99.90
21672;DHT22;10997;52.242;8.168;2023-07-16T09:49:34;22.10;99.90
21672;DHT22;10997;52.242;8.168;2023-07-16T09:54:38;21.80;99.90
21672;DHT22;10997;52.242;8.168;2023-07-16T09:59:39;21.60;99.90
21672;DHT22;10997;52.242;8.168;2023-07-16T10:04:40;22.30;99.90
21672;DHT22;10997;52.242;8.168;2023-07-16T10:09:50;22.60;99.90
21672;DHT22;10997;52.242;8.168;2023-07-16T10:14:53;22.80;99.90
21672;DHT22;10997;52.242;8.168;2023-07-16T10:19:58;22.90;99.90
21672;DHT22;10997;52.242;8.168;2023-07-16T10:25:00;23.00;99.90
21672;DHT22;10997;52.242;8.168;2023-07-16T10:30:02;23.10;99.90
21672;DHT22;10997;52.242;8.168;2023-07-16T10:35:05;22.40;99.90
21672;DHT22;10997;52.242;8.168;2023-07-16T10:40:11;22.40;99.90
21672;DHT22;10997;52.242;8.168;2023-07-16T10:45:13;22.70;99.90
21672;DHT22;10997;52.242;8.168;2023-07-16T10:50:13;22.60;99.90
21672;DHT22;10997;52.242;8.168;2023-07-16T10:55:14;23.10;99.90
21672;DHT22;10997;52.242;8.168;2023-07-16T11:00:15;23.20;99.90
21672;DHT22;10997;52.242;8.168;2023-07-16T11:05:18;23.00;99.90
21672;DHT22;10997;52.242;8.168;2023-07-16T11:10:19;22.70;99.90
21672;DHT22;10997;52.242;8.168;2023-07-16T11:15:33;22.90;99.90
21672;DHT22;10997;52.242;8.168;2023-07-16T11:20:34;23.00;99.90
21672;DHT22;10997;52.242;8.168;2023-07-16T11:25:35;22.90;99.90
21672;DHT22;10997;52.242;8.168;2023-07-16T11:30:35;22.90;99.90
21672;DHT22;10997;52.242;8.168;2023-07-16T11:35:37;23.10;99.90
21672;DHT22;10997;52.242;8.168;2023-07-16T11:40:38;23.20;99.90
21672;DHT22;10997;52.242;8.168;2023-07-16T11:45:39;23.00;99.90
21672;DHT22;10997;52.242;8.168;2023-07-16T11:50:40;23.20;99.90
21672;DHT22;10997;52.242;8.168;2023-07-16T11:55:40;23.50;99.90
21672;DHT22;10997;52.242;8.168;2023-07-16T12:00:41;23.20;99.90
21672;DHT22;10997;52.242;8.168;2023-07-16T12:05:42;23.40;99.90
21672;DHT22;10997;52.242;8.168;2023-07-16T12:10:42;23.30;99.80
21672;DHT22;10997;52.242;8.168;2023-07-16T12:15:43;23.20;99.30
21672;DHT22;10997;52.242;8.168;2023-07-16T12:20:43;23.40;99.40
21672;DHT22;10997;52.242;8.168;2023-07-16T12:25:44;23.20;99.40
21672;DHT22;10997;52.242;8.168;2023-07-16T12:30:45;23.70;99.90
21672;DHT22;10997;52.242;8.168;2023-07-16T12:35:45;23.60;99.00
21672;DHT22;10997;52.242;8.168;2023-07-16T12:40:47;23.40;99.20
21672;DHT22;10997;52.242;8.168;2023-07-16T12:45:48;23.60;99.90
21672;DHT22;10997;52.242;8.168;2023-07-16T12:50:48;23.70;98.60
21672;DHT22;10997;52.242;8.168;2023-07-16T12:55:49;23.10;98.40
21672;DHT22;10997;52.242;8.168;2023-07-16T13:00:50;23.50;99.00
21672;DHT22;10997;52.242;8.168;2023-07-16T13:05:50;24.50;99.30
21672;DHT22;10997;52.242;8.168;2023-07-16T13:10:51;25.00;98.80
21672;DHT22;10997;52.242;8.168;2023-07-16T13:15:51;25.40;98.00
21672;DHT22;10997;52.242;8.168;2023-07-16T13:20:53;25.00;96.70
21672;DHT22;10997;52.242;8.168;2023-07-16T13:25:54;24.70;96.60
21672;DHT22;10997;52.242;8.168;2023-07-16T13:30:56;24.80;97.60
21672;DHT22;10997;52.242;8.168;2023-07-16T13:35:56;25.00;97.60
21672;DHT22;10997;52.242;8.168;2023-07-16T13:41:00;24.70;96.40
21672;DHT22;10997;52.242;8.168;2023-07-16T13:46:00;24.90;96.90
21672;DHT22;10997;52.242;8.168;2023-07-16T13:51:01;25.30;96.60
21672;DHT22;10997;52.242;8.168;2023-07-16T13:56:02;25.50;96.20
21672;DHT22;10997;52.242;8.168;2023-07-16T14:01:02;24.60;97.00
21672;DHT22;10997;52.242;8.168;2023-07-16T14:06:03;24.50;97.00
21672;DHT22;10997;52.242;8.168;2023-07-16T14:11:04;24.40;96.70
21672;DHT22;10997;52.242;8.168;2023-07-16T14:16:04;24.20;97.10
21672;DHT22;10997;52.242;8.168;2023-07-16T14:21:05;24.40;96.90
21672;DHT22;10997;52.242;8.168;2023-07-16T14:26:06;24.00;97.20
21672;DHT22;10997;52.242;8.168;2023-07-16T14:31:06;23.70;97.50
21672;DHT22;10997;52.242;8.168;2023-07-16T14:36:07;24.20;97.30
21672;DHT22;10997;52.242;8.168;2023-07-16T14:41:08;24.60;97.70
21672;DHT22;10997;52.242;8.168;2023-07-16T14:46:08;25.10;95.80
21672;DHT22;10997;52.242;8.168;2023-07-16T14:51:15;24.70;96.70
21672;DHT22;10997;52.242;8.168;2023-07-16T14:56:16;24.60;95.50
21672;DHT22;10997;52.242;8.168;2023-07-16T15:01:16;24.50;95.90
21672;DHT22;10997;52.242;8.168;2023-07-16T15:06:17;24.70;96.20
21672;DHT22;10997;52.242;8.168;2023-07-16T15:11:17;25.00;95.80
21672;DHT22;10997;52.242;8.168;2023-07-16T15:16:18;25.30;95.90
21672;DHT22;10997;52.242;8.168;2023-07-16T15:21:18;24.90;95.50
21672;DHT22;10997;52.242;8.168;2023-07-16T15:26:19;25.00;95.30
21672;DHT22;10997;52.242;8.168;2023-07-16T15:31:20;25.60;95.00
21672;DHT22;10997;52.242;8.168;2023-07-16T15:36:27;25.80;94.90
21672;DHT22;10997;52.242;8.168;2023-07-16T15:41:28;25.10;94.90
21672;DHT22;10997;52.242;8.168;2023-07-16T15:46:29;25.20;94.80
21672;DHT22;10997;52.242;8.168;2023-07-16T15:51:30;24.70;94.70
21672;DHT22;10997;52.242;8.168;2023-07-16T15:56:31;24.30;94.50
21672;DHT22;10997;52.242;8.168;2023-07-16T16:01:31;24.20;94.80
21672;DHT22;10997;52.242;8.168;2023-07-16T16:06:32;24.40;94.70
21672;DHT22;10997;52.242;8.168;2023-07-16T16:11:33;24.40;94.40
21672;DHT22;10997;52.242;8.168;2023-07-16T16:16:33;24.40;94.40
21672;DHT22;10997;52.242;8.168;2023-07-16T16:21:34;23.90;94.70
21672;DHT22;10997;52.242;8.168;2023-07-16T16:26:34;23.70;95.30
21672;DHT22;10997;52.242;8.168;2023-07-16T16:31:35;23.80;95.70
21672;DHT22;10997;52.242;8.168;2023-07-16T16:36:36;23.90;95.90
21672;DHT22;10997;52.242;8.168;2023-07-16T16:41:36;24.10;96.10
21672;DHT22;10997;52.242;8.168;2023-07-16T16:46:37;24.20;96.40
21672;DHT22;10997;52.242;8.168;2023-07-16T16:51:37;24.20;95.50
21672;DHT22;10997;52.242;8.168;2023-07-16T16:56:38;24.10;95.50
21672;DHT22;10997;52.242;8.168;2023-07-16T17:01:39;24.00;95.30
21672;DHT22;10997;52.242;8.168;2023-07-16T17:06:40;24.00;95.40
21672;DHT22;10997;52.242;8.168;2023-07-16T17:11:41;24.00;95.80
21672;DHT22;10997;52.242;8.168;2023-07-16T17:16:42;24.00;95.00
21672;DHT22;10997;52.242;8.168;2023-07-16T17:21:42;24.00;95.50
21672;DHT22;10997;52.242;8.168;2023-07-16T17:26:43;24.00;95.40
21672;DHT22;10997;52.242;8.168;2023-07-16T17:31:44;23.80;95.10
21672;DHT22;10997;52.242;8.168;2023-07-16T17:36:44;23.80;95.20
21672;DHT22;10997;52.242;8.168;2023-07-16T17:41:45;23.90;95.50
21672;DHT22;10997;52.242;8.168;2023-07-16T17:46:45;24.10;96.00
21672;DHT22;10997;52.242;8.168;2023-07-16T17:51:46;24.40;96.20
21672;DHT22;10997;52.242;8.168;2023-07-16T17:56:47;24.30;96.00
21672;DHT22;10997;52.242;8.168;2023-07-16T18:01:49;24.10;96.00
21672;DHT22;10997;52.242;8.168;2023-07-16T18:06:50;24.00;96.70
21672;DHT22;10997;52.242;8.168;2023-07-16T18:11:50;24.20;96.60
21672;DHT22;10997;52.242;8.168;2023-07-16T18:16:52;24.20;96.80
21672;DHT22;10997;52.242;8.168;2023-07-16T18:21:53;24.30;97.00
21672;DHT22;10997;52.242;8.168;2023-07-16T18:26:53;24.20;97.30
21672;DHT22;10997;52.242;8.168;2023-07-16T18:31:56;23.60;97.50
21672;DHT22;10997;52.242;8.168;2023-07-16T18:36:56;23.50;97.80
21672;DHT22;10997;52.242;8.168;2023-07-16T18:41:57;23.10;97.80
21672;DHT22;10997;52.242;8.168;2023-07-16T18:46:57;22.80;97.80
21672;DHT22;10997;52.242;8.168;2023-07-16T18:51:58;22.70;98.00
21672;DHT22;10997;52.242;8.168;2023-07-16T18:56:58;22.50;98.20
21672;DHT22;10997;52.242;8.168;2023-07-16T19:01:59;22.40;98.30
21672;DHT22;10997;52.242;8.168;2023-07-16T19:07:01;22.30;98.40
21672;DHT22;10997;52.242;8.168;2023-07-16T19:12:01;22.20;98.70
21672;DHT22;10997;52.242;8.168;2023-07-16T19:17:12;22.10;99.00
21672;DHT22;10997;52.242;8.168;2023-07-16T19:22:13;21.90;99.60
21672;DHT22;10997;52.242;8.168;2023-07-16T19:27:14;21.90;99.60
21672;DHT22;10997;52.242;8.168;2023-07-16T19:32:14;21.80;99.90
21672;DHT22;10997;52.242;8.168;2023-07-16T19:37:15;21.70;99.90
21672;DHT22;10997;52.242;8.168;2023-07-16T19:42:15;21.30;99.90
21672;DHT22;10997;52.242;8.168;2023-07-16T19:47:16;20.80;99.90
21672;DHT22;10997;52.242;8.168;2023-07-16T19:52:16;20.60;99.90
21672;DHT22;10997;52.242;8.168;2023-07-16T19:57:17;20.40;99.90
21672;DHT22;10997;52.242;8.168;2023-07-16T20:02:19;20.30;99.90
21672;DHT22;10997;52.242;8.168;2023-07-16T20:07:20;20.20;99.90
21672;DHT22;10997;52.242;8.168;2023-07-16T20:12:21;20.10;99.90
21672;DHT22;10997;52.242;8.168;2023-07-16T20:17:21;20.00;99.90
21672;DHT22;10997;52.242;8.168;2023-07-16T20:22:22;20.00;99.90
21672;DHT22;10997;52.242;8.168;2023-07-16T20:27:24;19.90;99.90
21672;DHT22;10997;52.242;8.168;2023-07-16T20:32:24;19.90;99.90
21672;DHT22;10997;52.242;8.168;2023-07-16T20:37:25;19.90;99.90
21672;DHT22;10997;52.242;8.168;2023-07-16T20:42:25;19.90;99.90
21672;DHT22;10997;52.242;8.168;2023-07-16T20:47:26;19.90;99.90
21672;DHT22;10997;52.242;8.168;2023-07-16T20:52:26;19.80;99.90
21672;DHT22;10997;52.242;8.168;2023-07-16T20:57:27;19.60;99.90
21672;DHT22;10997;52.242;8.168;2023-07-16T21:02:27;19.50;99.90
21672;DHT22;10997;52.242;8.168;2023-07-16T21:07:28;19.40;99.90
21672;DHT22;10997;52.242;8.168;2023-07-16T21:12:29;19.40;99.90
21672;DHT22;10997;52.242;8.168;2023-07-16T21:17:29;19.30;99.90
21672;DHT22;10997;52.242;8.168;2023-07-16T21:22:30;19.30;99.90
21672;DHT22;10997;52.242;8.168;2023-07-16T21:27:38;19.20;99.90
21672;DHT22;10997;52.242;8.168;2023-07-16T21:32:39;19.20;99.90
21672;DHT22;10997;52.242;8.168;2023-07-16T21:37:40;19.10;99.90
21672;DHT22;10997;52.242;8.168;2023-07-16T21:42:41;19.00;99.90
21672;DHT22;10997;52.242;8.168;2023-07-16T21:47:41;19.00;99.90
21672;DHT22;10997;52.242;8.168;2023-07-16T21:52:42;19.10;99.90
21672;DHT22;10997;52.242;8.168;2023-07-16T21:57:42;19.10;99.90
21672;DHT22;10997;52.242;8.168;2023-07-16T22:02:43;19.20;99.90
21672;DHT22;10997;52.242;8.168;2023-07-16T22:07:43;19.30;99.90
21672;DHT22;10997;52.242;8.168;2023-07-16T22:12:44;19.30;99.90
21672;DHT22;10997;52.242;8.168;2023-07-16T22:17:45;19.30;99.90
21672;DHT22;10997;52.242;8.168;2023-07-16T22:22:45;19.20;99.90
21672;DHT22;10997;52.242;8.168;2023-07-16T22:27:46;19.20;99.90
21672;DHT22;10997;52.242;8.168;2023-07-16T22:32:46;19.20;99.90
21672;DHT22;10997;52.242;8.168;2023-07-16T22:37:47;19.20;99.90
21672;DHT22;10997;52.242;8.168;2023-07-16T22:42:48;19.20;99.90
21672;DHT22;10997;52.242;8.168;2023-07-16T22:47:48;19.20;99.90
21672;DHT22;10997;52.242;8.168;2023-07-16T22:52:49;19.10;99.90
21672;DHT22;10997;52.242;8.168;2023-07-16T22:57:49;19.10;99.90
21672;DHT22;10997;52.242;8.168;2023-07-16T23:02:50;19.10;99.90
21672;DHT22;10997;52.242;8.168;2023-07-16T23:07:50;19.10;99.90
21672;DHT22;10997;52.242;8.168;2023-07-16T23:12:51;19.10;99.90
21672;DHT22;10997;52.242;8.168;2023-07-16T23:17:51;19.00;99.90
21672;DHT22;10997;52.242;8.168;2023-07-16T23:22:52;18.90;99.90
21672;DHT22;10997;52.242;8.168;2023-07-16T23:27:53;18.90;99.90
21672;DHT22;10997;52.242;8.168;2023-07-16T23:32:53;18.80;99.90
21672;DHT22;10997;52.242;8.168;2023-07-16T23:37:54;18.70;99.90
21672;DHT22;10997;52.242;8.168;2023-07-16T23:42:55;18.70;99.90
21672;DHT22;10997;52.242;8.168;2023-07-16T23:47:56;18.60;99.90
21672;DHT22;10997;52.242;8.168;2023-07-16T23:52:56;18.60;99.90
21672;DHT22;10997;52.242;8.168;2023-07-16T23:57:58;18.50;99.90
